DLH35U LPFR-EDDF
Flight info
| Callsign | DLH35U |
|---|---|
| Flight time | 2h 57m |
| Altitude | 36000 |
| Route | ELVAR DCT BARDI DCT ZMR DCT NUBLO DCT RONSI DCT DELOG/N0452F380 DCT YURZI UL14 TEPRA UN867 MOKOR UN741 NTS DCT PIWIZ DCT TSU UN858 OQQAL DCT RANUX/N0446F370 DCT VALEK DCT LUTAX UM163 DIK T856 NIVNU T847 IMCOM IMCOM1A |
| Aircraft | A21N/M-SDE2E3FGIJ1LORWXYZ/HB1 |
Departure
| Time | 2026-05-06 14:46 |
|---|---|
| Airport | Faro - Gago Coutinho International Airport (LPFR) |
Arrival
| Time | 2026-05-06 17:43 |
|---|---|
| Airport | Frankfurt Main Airport (EDDF) |
| Time | Latitude | Longitude | Altitude | Speed | Heading |
|---|---|---|---|---|---|
| 2026-05-06 13:38 | 37.01924 | -7.96914 | 26 ft | 0 kts | 10° |
| 2026-05-06 14:36 | 37.01918 | -7.96915 | 26 ft | 2 kts | 10° |
| 2026-05-06 14:36 | 37.01904 | -7.96919 | 26 ft | 2 kts | 10° |
| 2026-05-06 14:37 | 37.01889 | -7.96922 | 26 ft | 2 kts | 10° |
| 2026-05-06 14:37 | 37.01874 | -7.96925 | 26 ft | 2 kts | 10° |
| 2026-05-06 14:37 | 37.01859 | -7.96929 | 26 ft | 2 kts | 10° |
| 2026-05-06 14:37 | 37.01846 | -7.96936 | 26 ft | 2 kts | 58° |
| 2026-05-06 14:38 | 37.01843 | -7.96949 | 26 ft | 0 kts | 97° |
| 2026-05-06 14:38 | 37.01845 | -7.96957 | 26 ft | 1 kts | 101° |
| 2026-05-06 14:38 | 37.01845 | -7.96958 | 26 ft | 0 kts | 101° |
| 2026-05-06 14:41 | 37.01844 | -7.96950 | 26 ft | 6 kts | 101° |
| 2026-05-06 14:41 | 37.01810 | -7.96891 | 25 ft | 9 kts | 166° |
| 2026-05-06 14:41 | 37.01738 | -7.96902 | 24 ft | 11 kts | 189° |
| 2026-05-06 14:42 | 37.01667 | -7.96878 | 22 ft | 10 kts | 110° |
| 2026-05-06 14:42 | 37.01653 | -7.96781 | 22 ft | 12 kts | 100° |
| 2026-05-06 14:42 | 37.01635 | -7.96663 | 22 ft | 20 kts | 100° |
| 2026-05-06 14:42 | 37.01608 | -7.96467 | 22 ft | 22 kts | 100° |
| 2026-05-06 14:43 | 37.01580 | -7.96274 | 21 ft | 22 kts | 100° |
| 2026-05-06 14:43 | 37.01552 | -7.96077 | 19 ft | 22 kts | 100° |
| 2026-05-06 14:43 | 37.01524 | -7.95893 | 17 ft | 18 kts | 108° |
| 2026-05-06 14:43 | 37.01432 | -7.95846 | 16 ft | 16 kts | 191° |
| 2026-05-06 14:44 | 37.01345 | -7.95909 | 17 ft | 13 kts | 274° |
| 2026-05-06 14:44 | 37.01353 | -7.95966 | 18 ft | 0 kts | 280° |
| 2026-05-06 14:45 | 37.01362 | -7.96023 | 19 ft | 32 kts | 279° |
| 2026-05-06 14:45 | 37.01453 | -7.96668 | 22 ft | 115 kts | 279° |
| 2026-05-06 14:46 | 37.01628 | -7.97878 | 263 ft | 157 kts | 277° |
| 2026-05-06 14:46 | 37.01852 | -7.99259 | 956 ft | 167 kts | 279° |
| 2026-05-06 14:46 | 37.02044 | -8.00649 | 1845 ft | 168 kts | 280° |
| 2026-05-06 14:46 | 37.02240 | -8.02118 | 2478 ft | 177 kts | 281° |
| 2026-05-06 14:47 | 37.02459 | -8.03690 | 2878 ft | 192 kts | 282° |
| 2026-05-06 14:47 | 37.02703 | -8.05409 | 3277 ft | 209 kts | 282° |
| 2026-05-06 14:47 | 37.02965 | -8.07239 | 3799 ft | 219 kts | 283° |
| 2026-05-06 14:47 | 37.03510 | -8.09029 | 4205 ft | 232 kts | 311° |
| 2026-05-06 14:48 | 37.04881 | -8.10111 | 4587 ft | 247 kts | 348° |
| 2026-05-06 14:48 | 37.06628 | -8.09975 | 5111 ft | 259 kts | 15° |
| 2026-05-06 14:48 | 37.08341 | -8.09301 | 5897 ft | 262 kts | 17° |
| 2026-05-06 14:48 | 37.10084 | -8.08616 | 6722 ft | 264 kts | 17° |
| 2026-05-06 14:49 | 37.11861 | -8.07916 | 7467 ft | 269 kts | 17° |
| 2026-05-06 14:49 | 37.13649 | -8.07210 | 8138 ft | 275 kts | 17° |
| 2026-05-06 14:49 | 37.15471 | -8.06491 | 8796 ft | 280 kts | 17° |
| 2026-05-06 14:49 | 37.17345 | -8.05751 | 9446 ft | 286 kts | 17° |
| 2026-05-06 14:50 | 37.19268 | -8.04990 | 10098 ft | 291 kts | 17° |
| 2026-05-06 14:50 | 37.21211 | -8.04219 | 10570 ft | 302 kts | 17° |
| 2026-05-06 14:50 | 37.23258 | -8.03405 | 11119 ft | 310 kts | 17° |
| 2026-05-06 14:50 | 37.25308 | -8.02589 | 11758 ft | 313 kts | 17° |
| 2026-05-06 14:51 | 37.27394 | -8.01760 | 12386 ft | 317 kts | 17° |
| 2026-05-06 14:51 | 37.29501 | -8.00921 | 12996 ft | 321 kts | 16° |
| 2026-05-06 14:51 | 37.31636 | -8.00072 | 13610 ft | 324 kts | 16° |
| 2026-05-06 14:51 | 37.33798 | -7.99212 | 14220 ft | 327 kts | 16° |
| 2026-05-06 14:52 | 37.35949 | -7.98355 | 14820 ft | 330 kts | 16° |
| 2026-05-06 14:52 | 37.38152 | -7.97478 | 15409 ft | 333 kts | 16° |
| 2026-05-06 14:52 | 37.40355 | -7.96601 | 15979 ft | 336 kts | 15° |
| 2026-05-06 14:52 | 37.42601 | -7.95705 | 16527 ft | 340 kts | 15° |
| 2026-05-06 14:53 | 37.44865 | -7.94802 | 17068 ft | 343 kts | 15° |
| 2026-05-06 14:53 | 37.47144 | -7.93892 | 17607 ft | 346 kts | 15° |
| 2026-05-06 14:53 | 37.49443 | -7.92974 | 18144 ft | 348 kts | 15° |
| 2026-05-06 14:53 | 37.51740 | -7.92056 | 18665 ft | 351 kts | 15° |
| 2026-05-06 14:54 | 37.54094 | -7.91115 | 19167 ft | 354 kts | 15° |
| 2026-05-06 14:54 | 37.56438 | -7.90177 | 19635 ft | 358 kts | 15° |
| 2026-05-06 14:54 | 37.58829 | -7.89219 | 20107 ft | 361 kts | 15° |
| 2026-05-06 14:54 | 37.61235 | -7.88256 | 20580 ft | 364 kts | 15° |
| 2026-05-06 14:55 | 37.63651 | -7.87287 | 21036 ft | 367 kts | 15° |
| 2026-05-06 14:55 | 37.66077 | -7.86313 | 21479 ft | 370 kts | 15° |
| 2026-05-06 14:55 | 37.68532 | -7.85327 | 21903 ft | 374 kts | 15° |
| 2026-05-06 14:55 | 37.71030 | -7.84324 | 22329 ft | 377 kts | 15° |
| 2026-05-06 14:56 | 37.73555 | -7.83309 | 22750 ft | 381 kts | 15° |
| 2026-05-06 14:56 | 37.76062 | -7.82300 | 23162 ft | 384 kts | 15° |
| 2026-05-06 14:56 | 37.78614 | -7.81272 | 23575 ft | 387 kts | 15° |
| 2026-05-06 14:56 | 37.81183 | -7.80236 | 23991 ft | 389 kts | 15° |
| 2026-05-06 14:57 | 37.83776 | -7.79190 | 24418 ft | 392 kts | 15° |
| 2026-05-06 14:57 | 37.86392 | -7.78133 | 24851 ft | 393 kts | 15° |
| 2026-05-06 14:57 | 37.88976 | -7.77090 | 25244 ft | 396 kts | 15° |
| 2026-05-06 14:57 | 37.91625 | -7.76018 | 25614 ft | 398 kts | 15° |
| 2026-05-06 14:58 | 37.94272 | -7.74947 | 25977 ft | 401 kts | 15° |
| 2026-05-06 14:58 | 37.96901 | -7.73882 | 26341 ft | 403 kts | 15° |
| 2026-05-06 14:58 | 37.99572 | -7.72799 | 26695 ft | 405 kts | 15° |
| 2026-05-06 14:58 | 38.02277 | -7.71702 | 27044 ft | 407 kts | 14° |
| 2026-05-06 14:59 | 38.04974 | -7.70607 | 27380 ft | 410 kts | 14° |
| 2026-05-06 14:59 | 38.07708 | -7.69498 | 27719 ft | 412 kts | 14° |
| 2026-05-06 14:59 | 38.10439 | -7.68389 | 28043 ft | 414 kts | 14° |
| 2026-05-06 14:59 | 38.13169 | -7.67279 | 28356 ft | 417 kts | 14° |
| 2026-05-06 15:00 | 38.15951 | -7.66147 | 28670 ft | 419 kts | 14° |
| 2026-05-06 15:00 | 38.18721 | -7.65019 | 28983 ft | 422 kts | 14° |
| 2026-05-06 15:00 | 38.21546 | -7.63867 | 29302 ft | 424 kts | 14° |
| 2026-05-06 15:00 | 38.24336 | -7.62728 | 29613 ft | 426 kts | 14° |
| 2026-05-06 15:01 | 38.27156 | -7.61576 | 29907 ft | 428 kts | 14° |
| 2026-05-06 15:01 | 38.30018 | -7.60406 | 30210 ft | 430 kts | 14° |
| 2026-05-06 15:01 | 38.32862 | -7.59241 | 30490 ft | 432 kts | 14° |
| 2026-05-06 15:01 | 38.35722 | -7.58071 | 30771 ft | 434 kts | 14° |
| 2026-05-06 15:02 | 38.38591 | -7.56894 | 31062 ft | 435 kts | 14° |
| 2026-05-06 15:02 | 38.41467 | -7.55716 | 31368 ft | 436 kts | 14° |
| 2026-05-06 15:02 | 38.44365 | -7.54526 | 31655 ft | 437 kts | 14° |
| 2026-05-06 15:02 | 38.47264 | -7.53335 | 31921 ft | 439 kts | 14° |
| 2026-05-06 15:03 | 38.50188 | -7.52133 | 32171 ft | 441 kts | 14° |
| 2026-05-06 15:03 | 38.53081 | -7.50942 | 32429 ft | 442 kts | 14° |
| 2026-05-06 15:03 | 38.56015 | -7.49734 | 32687 ft | 444 kts | 14° |
| 2026-05-06 15:03 | 38.58948 | -7.48525 | 32935 ft | 445 kts | 14° |
| 2026-05-06 15:04 | 38.61927 | -7.47296 | 33177 ft | 447 kts | 14° |
| 2026-05-06 15:04 | 38.64858 | -7.46085 | 33485 ft | 446 kts | 14° |
| 2026-05-06 15:04 | 38.67794 | -7.44869 | 33985 ft | 440 kts | 14° |
| 2026-05-06 15:04 | 38.70670 | -7.43677 | 34472 ft | 434 kts | 14° |
| 2026-05-06 15:05 | 38.73528 | -7.42494 | 34888 ft | 428 kts | 14° |
| 2026-05-06 15:05 | 38.76342 | -7.41327 | 35179 ft | 427 kts | 13° |
| 2026-05-06 15:05 | 38.79196 | -7.40148 | 35246 ft | 432 kts | 13° |
| 2026-05-06 15:06 | 38.84934 | -7.37773 | 35412 ft | 440 kts | 13° |
| 2026-05-06 15:06 | 38.90823 | -7.35325 | 35544 ft | 448 kts | 14° |
| 2026-05-06 15:07 | 38.96781 | -7.32843 | 35662 ft | 455 kts | 14° |
| 2026-05-06 15:07 | 39.02874 | -7.30303 | 35781 ft | 462 kts | 14° |
| 2026-05-06 15:08 | 39.08998 | -7.27745 | 35894 ft | 465 kts | 14° |
| 2026-05-06 15:08 | 39.14998 | -7.24533 | 35903 ft | 470 kts | 23° |
| 2026-05-06 15:09 | 39.20875 | -7.20676 | 35903 ft | 469 kts | 24° |
| 2026-05-06 15:09 | 39.26646 | -7.16900 | 35898 ft | 468 kts | 24° |
| 2026-05-06 15:10 | 39.32482 | -7.13116 | 35898 ft | 469 kts | 24° |
| 2026-05-06 15:10 | 39.38289 | -7.09359 | 35896 ft | 469 kts | 24° |
| 2026-05-06 15:11 | 39.44099 | -7.05598 | 35892 ft | 469 kts | 24° |
| 2026-05-06 15:11 | 39.49950 | -7.01805 | 35882 ft | 469 kts | 24° |
| 2026-05-06 15:12 | 39.55756 | -6.98035 | 35874 ft | 469 kts | 24° |
| 2026-05-06 15:12 | 39.61591 | -6.94238 | 35883 ft | 469 kts | 24° |
| 2026-05-06 15:13 | 39.67392 | -6.90457 | 35886 ft | 469 kts | 24° |
| 2026-05-06 15:13 | 39.73239 | -6.86639 | 35886 ft | 470 kts | 24° |
| 2026-05-06 15:14 | 39.79046 | -6.82840 | 35880 ft | 469 kts | 24° |
| 2026-05-06 15:14 | 39.84872 | -6.79021 | 35879 ft | 469 kts | 24° |
| 2026-05-06 15:15 | 39.90677 | -6.75208 | 35885 ft | 468 kts | 24° |
| 2026-05-06 15:15 | 39.96505 | -6.71373 | 35885 ft | 469 kts | 24° |
| 2026-05-06 15:16 | 40.02298 | -6.67552 | 35886 ft | 468 kts | 24° |
| 2026-05-06 15:16 | 40.08110 | -6.63713 | 35902 ft | 469 kts | 24° |
| 2026-05-06 15:17 | 40.13923 | -6.59866 | 35914 ft | 469 kts | 24° |
| 2026-05-06 15:17 | 40.19722 | -6.56019 | 35909 ft | 468 kts | 24° |
| 2026-05-06 15:18 | 40.25528 | -6.52162 | 35918 ft | 468 kts | 24° |
| 2026-05-06 15:18 | 40.31354 | -6.48283 | 35917 ft | 468 kts | 24° |
| 2026-05-06 15:19 | 40.37130 | -6.44433 | 35909 ft | 468 kts | 24° |
| 2026-05-06 15:19 | 40.42910 | -6.40571 | 35920 ft | 467 kts | 24° |
| 2026-05-06 15:20 | 40.48681 | -6.36707 | 35919 ft | 467 kts | 24° |
| 2026-05-06 15:20 | 40.54461 | -6.32830 | 35917 ft | 467 kts | 25° |
| 2026-05-06 15:21 | 40.60252 | -6.28921 | 35920 ft | 467 kts | 25° |
| 2026-05-06 15:21 | 40.65966 | -6.24974 | 35918 ft | 467 kts | 25° |
| 2026-05-06 15:22 | 40.71706 | -6.20996 | 35928 ft | 467 kts | 25° |
| 2026-05-06 15:22 | 40.77446 | -6.17016 | 35921 ft | 466 kts | 25° |
| 2026-05-06 15:23 | 40.83188 | -6.13030 | 35922 ft | 465 kts | 25° |
| 2026-05-06 15:23 | 40.88888 | -6.09068 | 35926 ft | 464 kts | 26° |
| 2026-05-06 15:24 | 40.94571 | -6.05109 | 35921 ft | 465 kts | 26° |
| 2026-05-06 15:24 | 41.00278 | -6.01124 | 35918 ft | 464 kts | 25° |
| 2026-05-06 15:25 | 41.05994 | -5.97127 | 35914 ft | 465 kts | 25° |
| 2026-05-06 15:25 | 41.11697 | -5.93130 | 35918 ft | 465 kts | 25° |
| 2026-05-06 15:26 | 41.17387 | -5.89134 | 35923 ft | 464 kts | 25° |
| 2026-05-06 15:26 | 41.23082 | -5.85129 | 35922 ft | 463 kts | 25° |
| 2026-05-06 15:27 | 41.28745 | -5.81138 | 35919 ft | 462 kts | 25° |
| 2026-05-06 15:27 | 41.34441 | -5.77116 | 35918 ft | 462 kts | 25° |
| 2026-05-06 15:28 | 41.40103 | -5.73110 | 35919 ft | 462 kts | 25° |
| 2026-05-06 15:28 | 41.45744 | -5.69111 | 35916 ft | 462 kts | 25° |
| 2026-05-06 15:29 | 41.51430 | -5.65079 | 35917 ft | 462 kts | 25° |
| 2026-05-06 15:29 | 41.57254 | -5.61518 | 35920 ft | 460 kts | 20° |
| 2026-05-06 15:30 | 41.63123 | -5.58219 | 35923 ft | 460 kts | 20° |
| 2026-05-06 15:30 | 41.69030 | -5.54900 | 35922 ft | 459 kts | 20° |
| 2026-05-06 15:31 | 41.74891 | -5.51591 | 35927 ft | 459 kts | 20° |
| 2026-05-06 15:31 | 41.80784 | -5.48256 | 35926 ft | 459 kts | 20° |
| 2026-05-06 15:32 | 41.89566 | -5.43269 | 35926 ft | 459 kts | 20° |
| 2026-05-06 15:32 | 41.95466 | -5.39908 | 35932 ft | 459 kts | 20° |
| 2026-05-06 15:33 | 42.01300 | -5.36579 | 35926 ft | 458 kts | 20° |
| 2026-05-06 15:33 | 42.07165 | -5.33226 | 35927 ft | 458 kts | 20° |
| 2026-05-06 15:34 | 42.13039 | -5.29861 | 35929 ft | 458 kts | 20° |
| 2026-05-06 15:34 | 42.18930 | -5.26480 | 35932 ft | 457 kts | 20° |
| 2026-05-06 15:35 | 42.24789 | -5.23110 | 35933 ft | 457 kts | 20° |
| 2026-05-06 15:35 | 42.30620 | -5.19748 | 35932 ft | 457 kts | 20° |
| 2026-05-06 15:36 | 42.36459 | -5.16376 | 35936 ft | 457 kts | 20° |
| 2026-05-06 15:36 | 42.42303 | -5.12995 | 35942 ft | 456 kts | 20° |
| 2026-05-06 15:37 | 42.48114 | -5.09626 | 35945 ft | 456 kts | 20° |
| 2026-05-06 15:37 | 42.53947 | -5.06239 | 35945 ft | 455 kts | 20° |
| 2026-05-06 15:38 | 42.59747 | -5.02864 | 35951 ft | 455 kts | 20° |
| 2026-05-06 15:38 | 42.65533 | -4.99488 | 35953 ft | 454 kts | 20° |
| 2026-05-06 15:39 | 42.71337 | -4.96091 | 35954 ft | 454 kts | 20° |
| 2026-05-06 15:39 | 42.77098 | -4.92713 | 35959 ft | 453 kts | 20° |
| 2026-05-06 15:40 | 42.82905 | -4.89301 | 35960 ft | 454 kts | 20° |
| 2026-05-06 15:40 | 42.88692 | -4.85896 | 35963 ft | 454 kts | 20° |
| 2026-05-06 15:41 | 42.94465 | -4.82492 | 35958 ft | 454 kts | 20° |
| 2026-05-06 15:41 | 43.00257 | -4.79070 | 35951 ft | 453 kts | 20° |
| 2026-05-06 15:42 | 43.06023 | -4.75657 | 35953 ft | 453 kts | 20° |
| 2026-05-06 15:42 | 43.11758 | -4.72255 | 35957 ft | 452 kts | 20° |
| 2026-05-06 15:43 | 43.17522 | -4.68828 | 35957 ft | 452 kts | 20° |
| 2026-05-06 15:43 | 43.23264 | -4.65409 | 35959 ft | 451 kts | 20° |
| 2026-05-06 15:44 | 43.29007 | -4.61981 | 35964 ft | 451 kts | 20° |
| 2026-05-06 15:44 | 43.34779 | -4.58530 | 35968 ft | 451 kts | 20° |
| 2026-05-06 15:45 | 43.40486 | -4.55111 | 35960 ft | 451 kts | 20° |
| 2026-05-06 15:45 | 43.46251 | -4.51649 | 35959 ft | 450 kts | 20° |
| 2026-05-06 15:46 | 43.51971 | -4.48205 | 35959 ft | 450 kts | 20° |
| 2026-05-06 15:46 | 43.57659 | -4.44770 | 35957 ft | 450 kts | 20° |
| 2026-05-06 15:47 | 43.63391 | -4.41304 | 35964 ft | 449 kts | 21° |
| 2026-05-06 15:47 | 43.69091 | -4.37850 | 35964 ft | 449 kts | 20° |
| 2026-05-06 15:48 | 43.74780 | -4.34396 | 35965 ft | 449 kts | 21° |
| 2026-05-06 15:48 | 43.80524 | -4.30903 | 35974 ft | 449 kts | 21° |
| 2026-05-06 15:49 | 43.86221 | -4.27432 | 35966 ft | 449 kts | 21° |
| 2026-05-06 15:49 | 43.89093 | -4.25678 | 36274 ft | 449 kts | 21° |
| 2026-05-06 15:49 | 43.91931 | -4.23944 | 36122 ft | 447 kts | 21° |
| 2026-05-06 15:50 | 43.97604 | -4.20473 | 36019 ft | 446 kts | 21° |
| 2026-05-06 15:50 | 44.03243 | -4.17015 | 35992 ft | 445 kts | 21° |
| 2026-05-06 15:51 | 44.08917 | -4.13529 | 35985 ft | 445 kts | 21° |
| 2026-05-06 15:51 | 44.14539 | -4.10067 | 35988 ft | 444 kts | 21° |
| 2026-05-06 15:52 | 44.20207 | -4.06570 | 35985 ft | 444 kts | 21° |
| 2026-05-06 15:52 | 44.25806 | -4.03109 | 35985 ft | 444 kts | 21° |
| 2026-05-06 15:53 | 44.31442 | -3.99598 | 35984 ft | 444 kts | 23° |
| 2026-05-06 15:53 | 44.36888 | -3.95584 | 35988 ft | 445 kts | 27° |
| 2026-05-06 15:54 | 44.42291 | -3.91299 | 35985 ft | 445 kts | 27° |
| 2026-05-06 15:54 | 44.47649 | -3.87038 | 35987 ft | 445 kts | 27° |
| 2026-05-06 15:55 | 44.53006 | -3.82776 | 35987 ft | 444 kts | 27° |
| 2026-05-06 15:55 | 44.58375 | -3.78500 | 35987 ft | 444 kts | 27° |
| 2026-05-06 15:56 | 44.63701 | -3.74251 | 35987 ft | 444 kts | 27° |
| 2026-05-06 15:56 | 44.69056 | -3.69969 | 35989 ft | 443 kts | 27° |
| 2026-05-06 15:57 | 44.74425 | -3.65667 | 35990 ft | 442 kts | 27° |
| 2026-05-06 15:57 | 44.79722 | -3.61414 | 35988 ft | 442 kts | 27° |
| 2026-05-06 15:58 | 44.85052 | -3.57124 | 35985 ft | 443 kts | 27° |
| 2026-05-06 15:58 | 44.90386 | -3.52825 | 35987 ft | 442 kts | 27° |
| 2026-05-06 15:59 | 44.95724 | -3.48512 | 35980 ft | 442 kts | 27° |
| 2026-05-06 15:59 | 45.01039 | -3.44206 | 35987 ft | 442 kts | 27° |
| 2026-05-06 16:00 | 45.06341 | -3.39903 | 35984 ft | 441 kts | 27° |
| 2026-05-06 16:00 | 45.11686 | -3.35557 | 35982 ft | 441 kts | 27° |
| 2026-05-06 16:01 | 45.16995 | -3.31229 | 35982 ft | 441 kts | 28° |
| 2026-05-06 16:01 | 45.22272 | -3.26918 | 35982 ft | 441 kts | 28° |
| 2026-05-06 16:02 | 45.27580 | -3.22571 | 35982 ft | 441 kts | 28° |
| 2026-05-06 16:02 | 45.32899 | -3.18207 | 35982 ft | 441 kts | 28° |
| 2026-05-06 16:03 | 45.38175 | -3.13870 | 35980 ft | 441 kts | 28° |
| 2026-05-06 16:03 | 45.43467 | -3.09509 | 35981 ft | 440 kts | 28° |
| 2026-05-06 16:04 | 45.48772 | -3.05128 | 35980 ft | 440 kts | 28° |
| 2026-05-06 16:04 | 45.54019 | -3.00785 | 35980 ft | 440 kts | 28° |
| 2026-05-06 16:05 | 45.59312 | -2.96395 | 35981 ft | 440 kts | 28° |
| 2026-05-06 16:05 | 45.64595 | -2.92004 | 35980 ft | 440 kts | 28° |
| 2026-05-06 16:06 | 45.69862 | -2.87616 | 35977 ft | 440 kts | 28° |
| 2026-05-06 16:06 | 45.75150 | -2.83200 | 35978 ft | 440 kts | 28° |
| 2026-05-06 16:07 | 45.80434 | -2.78779 | 35975 ft | 440 kts | 28° |
| 2026-05-06 16:07 | 45.85698 | -2.74364 | 35971 ft | 440 kts | 28° |
| 2026-05-06 16:08 | 45.90965 | -2.69938 | 35972 ft | 440 kts | 28° |
| 2026-05-06 16:08 | 45.96210 | -2.65522 | 35972 ft | 440 kts | 28° |
| 2026-05-06 16:09 | 46.01474 | -2.61081 | 35967 ft | 440 kts | 28° |
| 2026-05-06 16:09 | 46.06722 | -2.56639 | 35966 ft | 439 kts | 28° |
| 2026-05-06 16:10 | 46.12035 | -2.52339 | 35963 ft | 438 kts | 24° |
| 2026-05-06 16:10 | 46.17651 | -2.48982 | 35956 ft | 436 kts | 17° |
| 2026-05-06 16:11 | 46.23512 | -2.46755 | 35952 ft | 435 kts | 9° |
| 2026-05-06 16:11 | 46.29488 | -2.45575 | 35946 ft | 434 kts | 4° |
| 2026-05-06 16:12 | 46.35485 | -2.44659 | 35947 ft | 434 kts | 4° |
| 2026-05-06 16:12 | 46.41470 | -2.43680 | 35947 ft | 435 kts | 6° |
| 2026-05-06 16:13 | 46.47380 | -2.41883 | 35949 ft | 436 kts | 14° |
| 2026-05-06 16:13 | 46.53100 | -2.38985 | 35951 ft | 437 kts | 21° |
| 2026-05-06 16:14 | 46.58521 | -2.35051 | 35953 ft | 438 kts | 27° |
| 2026-05-06 16:14 | 46.63824 | -2.30663 | 35954 ft | 439 kts | 28° |
| 2026-05-06 16:15 | 46.69105 | -2.26263 | 35949 ft | 439 kts | 28° |
| 2026-05-06 16:15 | 46.74374 | -2.21877 | 35950 ft | 439 kts | 28° |
| 2026-05-06 16:16 | 46.79654 | -2.17479 | 35947 ft | 439 kts | 28° |
| 2026-05-06 16:16 | 46.84945 | -2.13063 | 35948 ft | 438 kts | 28° |
| 2026-05-06 16:17 | 46.90247 | -2.08737 | 35946 ft | 438 kts | 25° |
| 2026-05-06 16:17 | 46.95586 | -2.04461 | 35939 ft | 440 kts | 32° |
| 2026-05-06 16:18 | 47.00333 | -1.98813 | 35939 ft | 442 kts | 43° |
| 2026-05-06 16:18 | 47.04236 | -1.91883 | 35948 ft | 444 kts | 54° |
| 2026-05-06 16:19 | 47.07373 | -1.84076 | 35943 ft | 445 kts | 59° |
| 2026-05-06 16:19 | 47.10388 | -1.76149 | 35942 ft | 445 kts | 59° |
| 2026-05-06 16:20 | 47.13395 | -1.68274 | 35941 ft | 445 kts | 59° |
| 2026-05-06 16:20 | 47.16419 | -1.60373 | 35941 ft | 444 kts | 58° |
| 2026-05-06 16:21 | 47.19563 | -1.52607 | 35942 ft | 444 kts | 57° |
| 2026-05-06 16:21 | 47.22741 | -1.44841 | 35950 ft | 443 kts | 57° |
| 2026-05-06 16:22 | 47.25881 | -1.37122 | 35946 ft | 443 kts | 57° |
| 2026-05-06 16:22 | 47.29047 | -1.29300 | 35948 ft | 444 kts | 58° |
| 2026-05-06 16:23 | 47.32188 | -1.21512 | 35944 ft | 444 kts | 58° |
| 2026-05-06 16:23 | 47.35321 | -1.13723 | 35945 ft | 444 kts | 58° |
| 2026-05-06 16:24 | 47.38450 | -1.05916 | 35945 ft | 444 kts | 58° |
| 2026-05-06 16:24 | 47.41573 | -0.98103 | 35925 ft | 443 kts | 58° |
| 2026-05-06 16:25 | 47.44675 | -0.90321 | 35929 ft | 443 kts | 58° |
| 2026-05-06 16:25 | 47.47778 | -0.82512 | 35917 ft | 443 kts | 58° |
| 2026-05-06 16:26 | 47.50888 | -0.74663 | 35918 ft | 444 kts | 58° |
| 2026-05-06 16:26 | 47.53991 | -0.66812 | 35916 ft | 444 kts | 58° |
| 2026-05-06 16:27 | 47.57089 | -0.58948 | 35931 ft | 444 kts | 58° |
| 2026-05-06 16:27 | 47.60187 | -0.51060 | 35928 ft | 444 kts | 58° |
| 2026-05-06 16:28 | 47.63261 | -0.43210 | 35925 ft | 443 kts | 58° |
| 2026-05-06 16:28 | 47.66342 | -0.35322 | 35940 ft | 443 kts | 58° |
| 2026-05-06 16:29 | 47.69418 | -0.27426 | 35920 ft | 443 kts | 59° |
| 2026-05-06 16:29 | 47.72492 | -0.19505 | 35930 ft | 444 kts | 59° |
| 2026-05-06 16:30 | 47.75048 | -0.12904 | 35916 ft | 444 kts | 59° |
| 2026-05-06 16:30 | 47.78620 | -0.03653 | 35929 ft | 444 kts | 59° |
| 2026-05-06 16:31 | 47.81665 | 0.04259 | 35921 ft | 443 kts | 59° |
| 2026-05-06 16:31 | 47.84719 | 0.12220 | 35925 ft | 444 kts | 59° |
| 2026-05-06 16:32 | 47.87754 | 0.20153 | 35930 ft | 444 kts | 59° |
| 2026-05-06 16:32 | 47.90807 | 0.28157 | 35935 ft | 445 kts | 59° |
| 2026-05-06 16:33 | 47.93852 | 0.36166 | 35935 ft | 445 kts | 59° |
| 2026-05-06 16:34 | 47.98388 | 0.48140 | 35928 ft | 445 kts | 59° |
| 2026-05-06 16:34 | 48.01414 | 0.56153 | 35926 ft | 445 kts | 59° |
| 2026-05-06 16:35 | 48.04435 | 0.64181 | 35914 ft | 445 kts | 59° |
| 2026-05-06 16:35 | 48.07459 | 0.72241 | 35915 ft | 445 kts | 60° |
| 2026-05-06 16:36 | 48.10471 | 0.80293 | 35921 ft | 444 kts | 60° |
| 2026-05-06 16:36 | 48.13475 | 0.88346 | 35914 ft | 445 kts | 60° |
| 2026-05-06 16:37 | 48.16485 | 0.96440 | 35916 ft | 446 kts | 60° |
| 2026-05-06 16:37 | 48.19489 | 1.04525 | 35909 ft | 446 kts | 59° |
| 2026-05-06 16:38 | 48.22854 | 1.12297 | 35910 ft | 445 kts | 52° |
| 2026-05-06 16:38 | 48.26672 | 1.19519 | 35902 ft | 445 kts | 50° |
| 2026-05-06 16:39 | 48.30589 | 1.26682 | 35906 ft | 444 kts | 50° |
| 2026-05-06 16:39 | 48.34475 | 1.33819 | 35919 ft | 445 kts | 50° |
| 2026-05-06 16:40 | 48.38373 | 1.41011 | 35906 ft | 445 kts | 50° |
| 2026-05-06 16:40 | 48.42263 | 1.48210 | 35918 ft | 445 kts | 50° |
| 2026-05-06 16:41 | 48.46173 | 1.55465 | 35906 ft | 445 kts | 50° |
| 2026-05-06 16:41 | 48.50043 | 1.62668 | 35914 ft | 446 kts | 50° |
| 2026-05-06 16:42 | 48.53925 | 1.69911 | 35902 ft | 446 kts | 51° |
| 2026-05-06 16:42 | 48.57804 | 1.77167 | 35909 ft | 446 kts | 51° |
| 2026-05-06 16:43 | 48.61676 | 1.84432 | 35902 ft | 446 kts | 51° |
| 2026-05-06 16:43 | 48.65556 | 1.91728 | 35893 ft | 447 kts | 51° |
| 2026-05-06 16:44 | 48.69437 | 1.99050 | 35903 ft | 447 kts | 51° |
| 2026-05-06 16:44 | 48.72981 | 2.06825 | 35909 ft | 448 kts | 59° |
| 2026-05-06 16:45 | 48.75799 | 2.15232 | 35910 ft | 448 kts | 66° |
| 2026-05-06 16:45 | 48.77845 | 2.24105 | 35913 ft | 448 kts | 74° |
| 2026-05-06 16:46 | 48.79482 | 2.33182 | 35912 ft | 449 kts | 75° |
| 2026-05-06 16:46 | 48.81110 | 2.42337 | 35913 ft | 448 kts | 74° |
| 2026-05-06 16:47 | 48.82721 | 2.51375 | 35904 ft | 449 kts | 74° |
| 2026-05-06 16:47 | 48.84346 | 2.60511 | 35904 ft | 449 kts | 74° |
| 2026-05-06 16:48 | 48.85968 | 2.69688 | 35903 ft | 449 kts | 75° |
| 2026-05-06 16:48 | 48.87567 | 2.78823 | 35909 ft | 449 kts | 75° |
| 2026-05-06 16:49 | 48.89152 | 2.87931 | 35909 ft | 448 kts | 75° |
| 2026-05-06 16:49 | 48.90733 | 2.97064 | 35893 ft | 448 kts | 75° |
| 2026-05-06 16:50 | 48.92300 | 3.06154 | 35908 ft | 449 kts | 75° |
| 2026-05-06 16:50 | 48.93882 | 3.15368 | 35914 ft | 450 kts | 75° |
| 2026-05-06 16:51 | 48.95446 | 3.24528 | 35907 ft | 450 kts | 75° |
| 2026-05-06 16:51 | 48.97002 | 3.33683 | 35909 ft | 449 kts | 76° |
| 2026-05-06 16:52 | 48.98552 | 3.42852 | 35903 ft | 448 kts | 76° |
| 2026-05-06 16:52 | 49.00087 | 3.51988 | 35890 ft | 448 kts | 76° |
| 2026-05-06 16:53 | 49.01566 | 3.60830 | 35889 ft | 448 kts | 76° |
| 2026-05-06 16:53 | 49.03085 | 3.69973 | 35887 ft | 449 kts | 77° |
| 2026-05-06 16:54 | 49.04614 | 3.79212 | 35881 ft | 450 kts | 77° |
| 2026-05-06 16:54 | 49.06123 | 3.88384 | 35882 ft | 450 kts | 77° |
| 2026-05-06 16:55 | 49.07642 | 3.97657 | 35888 ft | 451 kts | 77° |
| 2026-05-06 16:55 | 49.09141 | 4.06865 | 35891 ft | 451 kts | 77° |
| 2026-05-06 16:56 | 49.10638 | 4.16104 | 35887 ft | 451 kts | 77° |
| 2026-05-06 16:56 | 49.12135 | 4.25410 | 35883 ft | 451 kts | 77° |
| 2026-05-06 16:57 | 49.13708 | 4.34641 | 35882 ft | 452 kts | 73° |
| 2026-05-06 16:57 | 49.15857 | 4.43646 | 35877 ft | 452 kts | 68° |
| 2026-05-06 16:58 | 49.18251 | 4.52449 | 35871 ft | 453 kts | 68° |
| 2026-05-06 16:58 | 49.20658 | 4.61305 | 35867 ft | 453 kts | 68° |
| 2026-05-06 16:59 | 49.23056 | 4.70187 | 35864 ft | 453 kts | 69° |
| 2026-05-06 16:59 | 49.25454 | 4.79113 | 35870 ft | 453 kts | 69° |
| 2026-05-06 17:00 | 49.27822 | 4.87970 | 35860 ft | 454 kts | 69° |
| 2026-05-06 17:00 | 49.30203 | 4.96906 | 35858 ft | 454 kts | 69° |
| 2026-05-06 17:01 | 49.32580 | 5.05858 | 35851 ft | 455 kts | 69° |
| 2026-05-06 17:01 | 49.34947 | 5.14812 | 35855 ft | 455 kts | 69° |
| 2026-05-06 17:02 | 49.37306 | 5.23771 | 35842 ft | 455 kts | 69° |
| 2026-05-06 17:02 | 49.39663 | 5.32759 | 35854 ft | 455 kts | 69° |
| 2026-05-06 17:03 | 49.41994 | 5.41678 | 35849 ft | 455 kts | 69° |
| 2026-05-06 17:03 | 49.44341 | 5.50686 | 35837 ft | 456 kts | 69° |
| 2026-05-06 17:04 | 49.46685 | 5.59726 | 35834 ft | 457 kts | 69° |
| 2026-05-06 17:04 | 49.49184 | 5.68733 | 35829 ft | 458 kts | 64° |
| 2026-05-06 17:05 | 49.52654 | 5.76860 | 35836 ft | 460 kts | 51° |
| 2026-05-06 17:05 | 49.57210 | 5.83722 | 35837 ft | 460 kts | 39° |
| 2026-05-06 17:06 | 49.62477 | 5.89276 | 35836 ft | 461 kts | 33° |
| 2026-05-06 17:06 | 49.67852 | 5.94583 | 35840 ft | 462 kts | 33° |
| 2026-05-06 17:07 | 49.73239 | 5.99972 | 35838 ft | 462 kts | 33° |
| 2026-05-06 17:07 | 49.78581 | 6.05365 | 35841 ft | 462 kts | 33° |
| 2026-05-06 17:08 | 49.83958 | 6.10777 | 35844 ft | 462 kts | 31° |
| 2026-05-06 17:08 | 49.89614 | 6.15496 | 35829 ft | 462 kts | 25° |
| 2026-05-06 17:09 | 49.95450 | 6.19576 | 35283 ft | 464 kts | 24° |
| 2026-05-06 17:09 | 49.98374 | 6.21649 | 34606 ft | 469 kts | 25° |
| 2026-05-06 17:09 | 50.01317 | 6.23794 | 33953 ft | 472 kts | 25° |
| 2026-05-06 17:09 | 50.04242 | 6.25945 | 33498 ft | 464 kts | 25° |
| 2026-05-06 17:10 | 50.07109 | 6.28055 | 32900 ft | 456 kts | 25° |
| 2026-05-06 17:10 | 50.09981 | 6.30168 | 32042 ft | 450 kts | 25° |
| 2026-05-06 17:10 | 50.12754 | 6.32206 | 31151 ft | 443 kts | 25° |
| 2026-05-06 17:10 | 50.15512 | 6.34235 | 30125 ft | 435 kts | 25° |
| 2026-05-06 17:11 | 50.18212 | 6.36225 | 29595 ft | 422 kts | 25° |
| 2026-05-06 17:11 | 50.20834 | 6.38157 | 29132 ft | 416 kts | 25° |
| 2026-05-06 17:11 | 50.23419 | 6.40065 | 28681 ft | 412 kts | 25° |
| 2026-05-06 17:11 | 50.26002 | 6.41973 | 28222 ft | 410 kts | 25° |
| 2026-05-06 17:12 | 50.28563 | 6.43868 | 27770 ft | 408 kts | 25° |
| 2026-05-06 17:12 | 50.31113 | 6.45760 | 27309 ft | 405 kts | 25° |
| 2026-05-06 17:12 | 50.33438 | 6.48131 | 26804 ft | 401 kts | 44° |
| 2026-05-06 17:12 | 50.34992 | 6.51659 | 26346 ft | 396 kts | 68° |
| 2026-05-06 17:13 | 50.35590 | 6.55804 | 25872 ft | 389 kts | 89° |
| 2026-05-06 17:13 | 50.35384 | 6.59965 | 25436 ft | 384 kts | 98° |
| 2026-05-06 17:13 | 50.35054 | 6.64095 | 24984 ft | 381 kts | 98° |
| 2026-05-06 17:13 | 50.34748 | 6.68180 | 24554 ft | 378 kts | 98° |
| 2026-05-06 17:14 | 50.34469 | 6.72231 | 24120 ft | 376 kts | 97° |
| 2026-05-06 17:14 | 50.34203 | 6.76289 | 23691 ft | 373 kts | 97° |
| 2026-05-06 17:14 | 50.33953 | 6.80282 | 23271 ft | 370 kts | 97° |
| 2026-05-06 17:14 | 50.33625 | 6.84246 | 22847 ft | 367 kts | 103° |
| 2026-05-06 17:15 | 50.32960 | 6.88081 | 22425 ft | 363 kts | 111° |
| 2026-05-06 17:15 | 50.31992 | 6.91703 | 21998 ft | 359 kts | 116° |
| 2026-05-06 17:15 | 50.30941 | 6.95210 | 21584 ft | 357 kts | 117° |
| 2026-05-06 17:15 | 50.29881 | 6.98705 | 21160 ft | 354 kts | 117° |
| 2026-05-06 17:16 | 50.28846 | 7.02133 | 20756 ft | 352 kts | 116° |
| 2026-05-06 17:16 | 50.27817 | 7.05563 | 20352 ft | 349 kts | 116° |
| 2026-05-06 17:16 | 50.26789 | 7.09000 | 19946 ft | 347 kts | 116° |
| 2026-05-06 17:16 | 50.25773 | 7.12391 | 19537 ft | 345 kts | 116° |
| 2026-05-06 17:17 | 50.24766 | 7.15756 | 19132 ft | 343 kts | 116° |
| 2026-05-06 17:17 | 50.23766 | 7.19098 | 18736 ft | 341 kts | 116° |
| 2026-05-06 17:17 | 50.22765 | 7.22429 | 18330 ft | 339 kts | 116° |
| 2026-05-06 17:17 | 50.21767 | 7.25744 | 17941 ft | 337 kts | 116° |
| 2026-05-06 17:18 | 50.20768 | 7.29057 | 17538 ft | 336 kts | 116° |
| 2026-05-06 17:18 | 50.19786 | 7.32364 | 17108 ft | 336 kts | 114° |
| 2026-05-06 17:18 | 50.18926 | 7.35730 | 16704 ft | 335 kts | 111° |
| 2026-05-06 17:18 | 50.18119 | 7.39102 | 16311 ft | 334 kts | 110° |
| 2026-05-06 17:19 | 50.17321 | 7.42472 | 15913 ft | 333 kts | 110° |
| 2026-05-06 17:19 | 50.16521 | 7.45844 | 15499 ft | 332 kts | 110° |
| 2026-05-06 17:19 | 50.15723 | 7.49196 | 15100 ft | 331 kts | 110° |
| 2026-05-06 17:19 | 50.14925 | 7.52541 | 14698 ft | 329 kts | 110° |
| 2026-05-06 17:20 | 50.14130 | 7.55858 | 14293 ft | 328 kts | 110° |
| 2026-05-06 17:20 | 50.13337 | 7.59164 | 13906 ft | 326 kts | 110° |
| 2026-05-06 17:20 | 50.12551 | 7.62430 | 13504 ft | 325 kts | 110° |
| 2026-05-06 17:20 | 50.11749 | 7.65742 | 13106 ft | 323 kts | 112° |
| 2026-05-06 17:21 | 50.10793 | 7.68890 | 12830 ft | 321 kts | 120° |
| 2026-05-06 17:21 | 50.09608 | 7.71842 | 12819 ft | 322 kts | 125° |
| 2026-05-06 17:21 | 50.08345 | 7.74701 | 12815 ft | 322 kts | 126° |
| 2026-05-06 17:21 | 50.07061 | 7.77562 | 12809 ft | 322 kts | 126° |
| 2026-05-06 17:22 | 50.05788 | 7.80402 | 12807 ft | 321 kts | 126° |
| 2026-05-06 17:22 | 50.04522 | 7.83236 | 12804 ft | 321 kts | 126° |
| 2026-05-06 17:22 | 50.03249 | 7.86089 | 12803 ft | 321 kts | 125° |
| 2026-05-06 17:22 | 50.01970 | 7.88953 | 12804 ft | 321 kts | 125° |
| 2026-05-06 17:23 | 50.00713 | 7.91772 | 12806 ft | 321 kts | 124° |
| 2026-05-06 17:23 | 49.99771 | 7.94905 | 12788 ft | 322 kts | 101° |
| 2026-05-06 17:23 | 49.99880 | 7.98357 | 12795 ft | 321 kts | 72° |
| 2026-05-06 17:23 | 50.00683 | 8.01604 | 12810 ft | 321 kts | 66° |
| 2026-05-06 17:24 | 50.01555 | 8.04797 | 12816 ft | 321 kts | 66° |
| 2026-05-06 17:24 | 50.02411 | 8.08002 | 12808 ft | 321 kts | 67° |
| 2026-05-06 17:24 | 50.03239 | 8.11220 | 12807 ft | 322 kts | 68° |
| 2026-05-06 17:24 | 50.04045 | 8.14436 | 12793 ft | 322 kts | 68° |
| 2026-05-06 17:25 | 50.04848 | 8.17693 | 12791 ft | 322 kts | 68° |
| 2026-05-06 17:25 | 50.05639 | 8.20924 | 12787 ft | 322 kts | 68° |
| 2026-05-06 17:25 | 50.06435 | 8.24195 | 12788 ft | 322 kts | 68° |
| 2026-05-06 17:25 | 50.07220 | 8.27434 | 12791 ft | 321 kts | 69° |
| 2026-05-06 17:26 | 50.08005 | 8.30681 | 12794 ft | 321 kts | 68° |
| 2026-05-06 17:26 | 50.08786 | 8.33915 | 12797 ft | 321 kts | 69° |
| 2026-05-06 17:26 | 50.09562 | 8.37136 | 12611 ft | 319 kts | 69° |
| 2026-05-06 17:26 | 50.10341 | 8.40371 | 11899 ft | 328 kts | 69° |
| 2026-05-06 17:27 | 50.11149 | 8.43738 | 11250 ft | 333 kts | 69° |
| 2026-05-06 17:27 | 50.11955 | 8.47103 | 10809 ft | 330 kts | 69° |
| 2026-05-06 17:27 | 50.12749 | 8.50422 | 10359 ft | 329 kts | 69° |
| 2026-05-06 17:27 | 50.13546 | 8.53756 | 9922 ft | 327 kts | 69° |
| 2026-05-06 17:28 | 50.14325 | 8.57020 | 9480 ft | 325 kts | 69° |
| 2026-05-06 17:28 | 50.15107 | 8.60303 | 9020 ft | 323 kts | 69° |
| 2026-05-06 17:28 | 50.15884 | 8.63571 | 8573 ft | 322 kts | 69° |
| 2026-05-06 17:28 | 50.16658 | 8.66829 | 8031 ft | 324 kts | 69° |
| 2026-05-06 17:29 | 50.17440 | 8.70123 | 7486 ft | 324 kts | 69° |
| 2026-05-06 17:29 | 50.18217 | 8.73400 | 7060 ft | 321 kts | 69° |
| 2026-05-06 17:29 | 50.18978 | 8.76613 | 6802 ft | 312 kts | 69° |
| 2026-05-06 17:29 | 50.19711 | 8.79711 | 6776 ft | 294 kts | 69° |
| 2026-05-06 17:30 | 50.20399 | 8.82636 | 6790 ft | 286 kts | 69° |
| 2026-05-06 17:30 | 50.21081 | 8.85529 | 6788 ft | 286 kts | 69° |
| 2026-05-06 17:30 | 50.21769 | 8.88452 | 6789 ft | 286 kts | 69° |
| 2026-05-06 17:30 | 50.22452 | 8.91365 | 6778 ft | 286 kts | 69° |
| 2026-05-06 17:31 | 50.23134 | 8.94276 | 6784 ft | 286 kts | 69° |
| 2026-05-06 17:31 | 50.23811 | 8.97163 | 6788 ft | 285 kts | 69° |
| 2026-05-06 17:31 | 50.24497 | 9.00098 | 6792 ft | 286 kts | 69° |
| 2026-05-06 17:31 | 50.25177 | 9.03016 | 6789 ft | 285 kts | 69° |
| 2026-05-06 17:32 | 50.25845 | 9.05885 | 6796 ft | 285 kts | 69° |
| 2026-05-06 17:32 | 50.26521 | 9.08786 | 6782 ft | 285 kts | 69° |
| 2026-05-06 17:32 | 50.27198 | 9.11703 | 6776 ft | 285 kts | 69° |
| 2026-05-06 17:32 | 50.27867 | 9.14626 | 6789 ft | 286 kts | 72° |
| 2026-05-06 17:33 | 50.28101 | 9.17682 | 6678 ft | 288 kts | 96° |
| 2026-05-06 17:33 | 50.27480 | 9.20643 | 6224 ft | 286 kts | 123° |
| 2026-05-06 17:33 | 50.26109 | 9.22810 | 5770 ft | 282 kts | 150° |
| 2026-05-06 17:33 | 50.24286 | 9.23768 | 5311 ft | 278 kts | 178° |
| 2026-05-06 17:34 | 50.22443 | 9.23315 | 4996 ft | 266 kts | 206° |
| 2026-05-06 17:34 | 50.20968 | 9.21632 | 4983 ft | 262 kts | 232° |
| 2026-05-06 17:34 | 50.20084 | 9.19191 | 5002 ft | 260 kts | 249° |
| 2026-05-06 17:34 | 50.19450 | 9.16554 | 4998 ft | 260 kts | 251° |
| 2026-05-06 17:35 | 50.18903 | 9.13841 | 4991 ft | 260 kts | 255° |
| 2026-05-06 17:35 | 50.18395 | 9.11134 | 4988 ft | 260 kts | 254° |
| 2026-05-06 17:35 | 50.17852 | 9.08449 | 4992 ft | 260 kts | 253° |
| 2026-05-06 17:36 | 50.16662 | 9.03139 | 4992 ft | 260 kts | 251° |
| 2026-05-06 17:36 | 50.16050 | 9.00578 | 4979 ft | 246 kts | 251° |
| 2026-05-06 17:36 | 50.15455 | 8.98141 | 4981 ft | 230 kts | 251° |
| 2026-05-06 17:36 | 50.14887 | 8.95830 | 4989 ft | 229 kts | 251° |
| 2026-05-06 17:37 | 50.14317 | 8.93522 | 4988 ft | 228 kts | 251° |
| 2026-05-06 17:37 | 50.13753 | 8.91239 | 4992 ft | 228 kts | 251° |
| 2026-05-06 17:37 | 50.13186 | 8.88938 | 4994 ft | 225 kts | 251° |
| 2026-05-06 17:37 | 50.12643 | 8.86736 | 4963 ft | 210 kts | 251° |
| 2026-05-06 17:38 | 50.12130 | 8.84643 | 4791 ft | 207 kts | 251° |
| 2026-05-06 17:38 | 50.11622 | 8.82560 | 4504 ft | 206 kts | 251° |
| 2026-05-06 17:38 | 50.11113 | 8.80470 | 4209 ft | 206 kts | 251° |
| 2026-05-06 17:38 | 50.10606 | 8.78382 | 3912 ft | 205 kts | 252° |
| 2026-05-06 17:39 | 50.10111 | 8.76342 | 3627 ft | 203 kts | 252° |
| 2026-05-06 17:39 | 50.09622 | 8.74324 | 3416 ft | 191 kts | 252° |
| 2026-05-06 17:39 | 50.09164 | 8.72433 | 3114 ft | 184 kts | 252° |
| 2026-05-06 17:39 | 50.08725 | 8.70616 | 2836 ft | 179 kts | 252° |
| 2026-05-06 17:40 | 50.08293 | 8.68832 | 2556 ft | 170 kts | 253° |
| 2026-05-06 17:40 | 50.07883 | 8.67128 | 2352 ft | 165 kts | 253° |
| 2026-05-06 17:40 | 50.07495 | 8.65523 | 2100 ft | 154 kts | 254° |
| 2026-05-06 17:40 | 50.07133 | 8.64026 | 1869 ft | 142 kts | 255° |
| 2026-05-06 17:41 | 50.06800 | 8.62644 | 1680 ft | 134 kts | 255° |
| 2026-05-06 17:41 | 50.06477 | 8.61288 | 1508 ft | 134 kts | 255° |
| 2026-05-06 17:41 | 50.06152 | 8.59934 | 1328 ft | 134 kts | 254° |
| 2026-05-06 17:41 | 50.05829 | 8.58590 | 1143 ft | 133 kts | 254° |
| 2026-05-06 17:42 | 50.05506 | 8.57243 | 951 ft | 133 kts | 254° |
| 2026-05-06 17:42 | 50.05182 | 8.55890 | 762 ft | 133 kts | 253° |
| 2026-05-06 17:42 | 50.04857 | 8.54542 | 552 ft | 133 kts | 254° |
| 2026-05-06 17:42 | 50.04538 | 8.53190 | 380 ft | 133 kts | 252° |
| 2026-05-06 17:43 | 50.04253 | 8.51980 | 358 ft | 96 kts | 250° |
| 2026-05-06 17:43 | 50.04077 | 8.51259 | 360 ft | 46 kts | 249° |
| 2026-05-06 17:43 | 50.03925 | 8.50938 | 355 ft | 29 kts | 221° |
| 2026-05-06 17:43 | 50.03822 | 8.50834 | 353 ft | 5 kts | 184° |
| 2026-05-06 17:44 | 50.03789 | 8.50859 | 354 ft | 5 kts | 130° |
| 2026-05-06 17:44 | 50.03785 | 8.50940 | 356 ft | 17 kts | 72° |
| 2026-05-06 17:44 | 50.03844 | 8.51183 | 357 ft | 24 kts | 70° |
| 2026-05-06 17:44 | 50.03902 | 8.51425 | 358 ft | 23 kts | 70° |
| 2026-05-06 17:45 | 50.03958 | 8.51661 | 356 ft | 23 kts | 70° |
| 2026-05-06 17:45 | 50.04014 | 8.51894 | 355 ft | 23 kts | 69° |
| 2026-05-06 17:45 | 50.04071 | 8.52132 | 354 ft | 22 kts | 70° |
| 2026-05-06 17:45 | 50.04125 | 8.52357 | 356 ft | 21 kts | 70° |
| 2026-05-06 17:46 | 50.04174 | 8.52562 | 358 ft | 20 kts | 70° |
| 2026-05-06 17:46 | 50.04226 | 8.52781 | 356 ft | 24 kts | 70° |
| 2026-05-06 17:46 | 50.04288 | 8.53042 | 352 ft | 26 kts | 70° |
| 2026-05-06 17:46 | 50.04354 | 8.53315 | 350 ft | 26 kts | 69° |
| 2026-05-06 17:47 | 50.04401 | 8.53580 | 351 ft | 25 kts | 84° |
| 2026-05-06 17:47 | 50.04419 | 8.53847 | 352 ft | 24 kts | 84° |
| 2026-05-06 17:47 | 50.04435 | 8.54098 | 353 ft | 22 kts | 84° |
| 2026-05-06 17:47 | 50.04452 | 8.54340 | 353 ft | 22 kts | 84° |
| 2026-05-06 17:48 | 50.04434 | 8.54577 | 352 ft | 21 kts | 114° |
| 2026-05-06 17:48 | 50.04337 | 8.54752 | 350 ft | 22 kts | 148° |
| 2026-05-06 17:48 | 50.04218 | 8.54827 | 350 ft | 16 kts | 161° |
| 2026-05-06 17:48 | 50.04116 | 8.54883 | 349 ft | 12 kts | 160° |
| 2026-05-06 17:49 | 50.04029 | 8.54934 | 347 ft | 14 kts | 159° |
| 2026-05-06 17:49 | 50.03903 | 8.55008 | 345 ft | 20 kts | 159° |
| 2026-05-06 17:49 | 50.03854 | 8.55138 | 346 ft | 17 kts | 71° |
| 2026-05-06 17:49 | 50.03899 | 8.55319 | 348 ft | 18 kts | 69° |
| 2026-05-06 17:50 | 50.03943 | 8.55506 | 348 ft | 18 kts | 70° |
| 2026-05-06 17:50 | 50.03987 | 8.55691 | 349 ft | 17 kts | 69° |
| 2026-05-06 17:50 | 50.04033 | 8.55878 | 348 ft | 18 kts | 70° |
| 2026-05-06 17:50 | 50.04082 | 8.56090 | 351 ft | 21 kts | 70° |
| 2026-05-06 17:51 | 50.04137 | 8.56276 | 355 ft | 16 kts | 29° |
| 2026-05-06 17:51 | 50.04240 | 8.56241 | 358 ft | 13 kts | 340° |
| 2026-05-06 17:51 | 50.04290 | 8.56151 | 359 ft | 11 kts | 266° |
| 2026-05-06 17:51 | 50.04334 | 8.56059 | 360 ft | 11 kts | 340° |
| 2026-05-06 17:52 | 50.04406 | 8.56027 | 361 ft | 10 kts | 7° |
| 2026-05-06 17:52 | 50.04451 | 8.56112 | 362 ft | 12 kts | 70° |
| 2026-05-06 17:52 | 50.04481 | 8.56238 | 363 ft | 12 kts | 70° |
| 2026-05-06 17:52 | 50.04512 | 8.56366 | 364 ft | 12 kts | 70° |
| 2026-05-06 17:53 | 50.04554 | 8.56442 | 365 ft | 5 kts | 27° |
| 2026-05-06 17:53 | 50.04563 | 8.56480 | 366 ft | 4 kts | 108° |
| 2026-05-06 17:53 | 50.04547 | 8.56537 | 366 ft | 6 kts | 115° |
| 2026-05-06 17:53 | 50.04536 | 8.56573 | 366 ft | 0 kts | 115° |